createdAt,value
2023-04-11T00:01:08.612Z,100.00
2023-04-11T00:03:39.620Z,100.00
2023-04-11T00:06:10.590Z,100.00
2023-04-11T00:08:39.562Z,100.00
2023-04-11T00:11:08.983Z,100.00
2023-04-11T00:13:37.861Z,100.00
2023-04-11T00:16:09.059Z,100.00
2023-04-11T00:18:39.601Z,100.00
2023-04-11T00:21:10.525Z,100.00
2023-04-11T00:23:38.992Z,100.00
2023-04-11T00:26:07.733Z,100.00
2023-04-11T00:28:36.315Z,100.00
2023-04-11T00:31:05.190Z,100.00
2023-04-11T00:33:33.939Z,100.00
2023-04-11T00:36:03.104Z,100.00
2023-04-11T00:38:34.423Z,100.00
2023-04-11T00:41:03.316Z,100.00
2023-04-11T00:43:32.920Z,100.00
2023-04-11T00:46:02.572Z,100.00
2023-04-11T00:48:31.589Z,100.00
2023-04-11T00:51:00.856Z,100.00
2023-04-11T00:53:32.971Z,100.00
2023-04-11T00:56:03.485Z,100.00
2023-04-11T00:58:33.965Z,100.00
2023-04-11T01:01:09.452Z,100.00
2023-04-11T01:03:38.732Z,100.00
2023-04-11T01:06:08.219Z,100.00
2023-04-11T01:08:37.339Z,100.00
2023-04-11T01:11:08.309Z,100.00
2023-04-11T01:13:38.411Z,100.00
2023-04-11T01:16:07.662Z,100.00
2023-04-11T01:18:36.432Z,100.00
2023-04-11T01:21:05.156Z,100.00
2023-04-11T01:23:35.789Z,100.00
2023-04-11T01:26:04.506Z,100.00
2023-04-11T01:28:33.429Z,100.00
2023-04-11T01:31:02.145Z,100.00
2023-04-11T01:33:30.686Z,100.00
2023-04-11T01:35:59.368Z,100.00
2023-04-11T01:38:28.044Z,100.00
2023-04-11T01:41:02.565Z,100.00
2023-04-11T01:43:31.452Z,100.00
2023-04-11T01:46:00.975Z,100.00
2023-04-11T01:48:30.099Z,100.00
2023-04-11T01:50:59.045Z,100.00
2023-04-11T01:53:27.625Z,100.00
2023-04-11T01:55:57.903Z,100.00
2023-04-11T01:58:26.370Z,100.00
2023-04-11T02:00:55.321Z,100.00
2023-04-11T02:03:24.122Z,100.00
2023-04-11T02:05:52.992Z,100.00
2023-04-11T02:08:21.963Z,100.00
2023-04-11T02:10:50.701Z,100.00
2023-04-11T02:13:20.788Z,100.00
2023-04-11T02:15:49.381Z,100.00
2023-04-11T02:18:18.161Z,100.00
2023-04-11T02:20:46.814Z,100.00
2023-04-11T02:23:16.561Z,100.00
2023-04-11T02:25:45.160Z,100.00
2023-04-11T02:28:13.623Z,100.00
2023-04-11T02:30:45.885Z,100.00
2023-04-11T02:33:14.769Z,100.00
2023-04-11T02:35:43.807Z,100.00
2023-04-11T02:38:12.384Z,100.00
2023-04-11T02:40:41.073Z,100.00
2023-04-11T02:43:10.196Z,100.00
2023-04-11T02:45:42.254Z,100.00
2023-04-11T02:48:12.897Z,100.00
2023-04-11T02:50:41.674Z,100.00
2023-04-11T02:53:10.398Z,100.00
2023-04-11T02:55:39.015Z,100.00
2023-04-11T02:58:07.496Z,100.00
2023-04-11T03:00:38.282Z,100.00
2023-04-11T03:03:09.776Z,100.00
2023-04-11T03:05:39.943Z,100.00
2023-04-11T03:08:09.515Z,100.00
2023-04-11T03:10:38.052Z,100.00
2023-04-11T03:13:07.149Z,100.00
2023-04-11T03:15:38.281Z,100.00
2023-04-11T03:18:07.369Z,100.00
2023-04-11T03:20:35.777Z,100.00
2023-04-11T03:23:06.246Z,100.00
2023-04-11T03:25:35.243Z,100.00
2023-04-11T03:28:03.779Z,100.00
2023-04-11T03:30:33.246Z,100.00
2023-04-11T03:33:02.336Z,100.00
2023-04-11T03:35:30.807Z,100.00
2023-04-11T03:37:59.631Z,100.00
2023-04-11T03:40:29.791Z,100.00
2023-04-11T03:43:00.245Z,100.00
2023-04-11T03:45:30.220Z,100.00
2023-04-11T03:47:58.958Z,100.00
2023-04-11T03:50:27.566Z,100.00
2023-04-11T03:52:59.747Z,100.00
2023-04-11T03:55:30.120Z,100.00
2023-04-11T03:57:59.354Z,100.00
2023-04-11T04:00:28.554Z,100.00
2023-04-11T04:02:57.746Z,100.00
2023-04-11T04:05:26.698Z,100.00
2023-04-11T04:07:56.110Z,100.00
2023-04-11T04:10:24.823Z,100.00
2023-04-11T04:12:54.797Z,100.00
2023-04-11T04:15:23.562Z,100.00
2023-04-11T04:17:55.189Z,100.00
2023-04-11T04:20:23.996Z,100.00
2023-04-11T04:22:56.199Z,100.00
2023-04-11T04:25:25.957Z,100.00
2023-04-11T04:27:58.317Z,100.00
2023-04-11T04:30:29.284Z,100.00
2023-04-11T04:32:59.118Z,100.00
2023-04-11T04:35:29.218Z,100.00
2023-04-11T04:37:58.089Z,100.00
2023-04-11T04:40:31.965Z,100.00
2023-04-11T04:43:02.433Z,100.00
2023-04-11T04:45:32.172Z,100.00
2023-04-11T04:48:00.961Z,100.00
2023-04-11T04:50:29.755Z,100.00
2023-04-11T04:52:58.548Z,100.00
2023-04-11T04:55:29.167Z,100.00
2023-04-11T04:57:58.069Z,100.00
2023-04-11T05:00:29.768Z,100.00
2023-04-11T05:02:58.581Z,100.00
2023-04-11T05:05:27.268Z,100.00
2023-04-11T05:07:58.305Z,100.00
2023-04-11T05:10:27.093Z,100.00
2023-04-11T05:13:00.147Z,100.00
2023-04-11T05:15:30.690Z,100.00
2023-04-11T05:17:59.270Z,100.00
2023-04-11T05:20:29.939Z,100.00
2023-04-11T05:22:58.753Z,100.00
2023-04-11T05:25:28.264Z,100.00
2023-04-11T05:27:56.956Z,100.00
2023-04-11T05:30:26.101Z,100.00
2023-04-11T05:32:59.300Z,100.00
2023-04-11T05:35:28.179Z,100.00
2023-04-11T05:37:58.568Z,100.00
2023-04-11T05:40:27.497Z,100.00
2023-04-11T05:42:59.362Z,100.00
2023-04-11T05:45:28.204Z,100.00
2023-04-11T05:47:58.982Z,100.00
2023-04-11T05:50:27.879Z,100.00
2023-04-11T05:52:57.582Z,100.00
2023-04-11T05:55:25.905Z,100.00
2023-04-11T05:57:54.415Z,100.00
2023-04-11T06:00:24.469Z,100.00
2023-04-11T06:02:55.200Z,100.00
2023-04-11T06:05:26.850Z,100.00
2023-04-11T06:07:55.342Z,100.00
2023-04-11T06:10:23.787Z,100.00
2023-04-11T06:12:52.402Z,100.00
2023-04-11T06:15:21.774Z,100.00
2023-04-11T06:17:50.913Z,100.00
2023-04-11T06:20:19.383Z,100.00
2023-04-11T06:22:51.726Z,100.00
2023-04-11T06:25:21.605Z,100.00
2023-04-11T06:27:50.566Z,100.00
2023-04-11T06:30:19.418Z,100.00
2023-04-11T06:32:47.886Z,100.00
2023-04-11T06:35:20.618Z,100.00
2023-04-11T06:37:51.082Z,100.00
2023-04-11T06:40:23.580Z,100.00
2023-04-11T06:42:53.504Z,100.00
2023-04-11T06:45:22.246Z,100.00
2023-04-11T06:47:51.495Z,100.00
2023-04-11T06:50:19.927Z,100.00
2023-04-11T06:52:51.108Z,100.00
2023-04-11T06:55:19.903Z,100.00
2023-04-11T06:57:49.664Z,100.00
2023-04-11T07:00:21.881Z,100.00
2023-04-11T07:02:54.825Z,100.00
2023-04-11T07:05:24.232Z,100.00
2023-04-11T07:07:54.808Z,100.00
2023-04-11T07:10:25.336Z,100.00
2023-04-11T07:12:53.864Z,100.00
2023-04-11T07:15:24.183Z,100.00
2023-04-11T07:17:54.807Z,100.00
2023-04-11T07:20:23.779Z,100.00
2023-04-11T07:22:54.155Z,100.00
2023-04-11T07:25:27.780Z,100.00
2023-04-11T07:27:57.002Z,100.00
2023-04-11T07:30:26.770Z,100.00
2023-04-11T07:32:56.121Z,100.00
2023-04-11T07:35:25.792Z,100.00
2023-04-11T07:37:57.707Z,100.00
2023-04-11T07:40:26.781Z,100.00
2023-04-11T07:42:55.764Z,100.00
2023-04-11T07:45:24.848Z,100.00
2023-04-11T07:47:56.470Z,100.00
2023-04-11T07:50:25.265Z,100.00
2023-04-11T07:52:56.263Z,100.00
2023-04-11T07:55:25.717Z,100.00
2023-04-11T07:57:54.442Z,100.00
2023-04-11T08:00:27.429Z,100.00
2023-04-11T08:03:03.830Z,100.00
2023-04-11T08:05:42.828Z,100.00
2023-04-11T08:08:12.849Z,100.00
2023-04-11T08:10:41.534Z,100.00
2023-04-11T08:13:10.125Z,100.00
2023-04-11T08:15:39.197Z,100.00
2023-04-11T08:18:07.494Z,100.00
2023-04-11T08:20:36.477Z,100.00
2023-04-11T08:23:08.004Z,100.00
2023-04-11T08:25:38.006Z,100.00
2023-04-11T08:28:06.925Z,100.00
2023-04-11T08:30:42.861Z,100.00
2023-04-11T08:33:12.447Z,100.00
2023-04-11T08:35:43.272Z,100.00
2023-04-11T08:38:21.459Z,100.00
2023-04-11T08:40:53.287Z,100.00
2023-04-11T08:43:21.915Z,100.00
2023-04-11T08:45:53.751Z,100.00
2023-04-11T08:48:25.612Z,100.00
2023-04-11T08:50:56.852Z,100.00
2023-04-11T08:53:27.474Z,100.00
2023-04-11T08:55:59.430Z,100.00
2023-04-11T08:58:28.156Z,100.00
2023-04-11T09:00:59.990Z,100.00
2023-04-11T09:03:29.126Z,100.00
2023-04-11T09:05:58.340Z,100.00
2023-04-11T09:08:39.461Z,100.00
2023-04-11T09:11:09.965Z,100.00
2023-04-11T09:13:39.105Z,100.00
2023-04-11T09:16:10.494Z,100.00
2023-04-11T09:18:43.331Z,100.00
2023-04-11T09:21:14.560Z,100.00
2023-04-11T09:23:43.759Z,100.00
2023-04-11T09:26:14.811Z,100.00
2023-04-11T09:28:52.937Z,100.00
2023-04-11T09:31:22.872Z,100.00
2023-04-11T09:33:56.033Z,100.00
2023-04-11T09:36:27.450Z,100.00
2023-04-11T09:38:56.479Z,100.00
2023-04-11T09:41:34.194Z,100.00
2023-04-11T09:44:06.013Z,100.00
2023-04-11T09:46:35.036Z,100.00
2023-04-11T09:49:04.843Z,100.00
2023-04-11T09:51:36.832Z,100.00
2023-04-11T09:54:06.653Z,100.00
2023-04-11T09:56:37.585Z,100.00
2023-04-11T09:59:06.443Z,100.00
2023-04-11T10:01:35.279Z,100.00
2023-04-11T10:04:04.639Z,100.00
2023-04-11T10:06:36.272Z,100.00
2023-04-11T10:09:09.829Z,100.00
2023-04-11T10:11:42.590Z,100.00
2023-04-11T10:14:44.964Z,100.00
2023-04-11T10:17:19.729Z,100.00
2023-04-11T10:19:51.813Z,100.00
2023-04-11T10:23:01.538Z,100.00
2023-04-11T10:25:30.576Z,100.00
2023-04-11T10:28:04.370Z,100.00
2023-04-11T10:31:02.586Z,100.00
2023-04-11T10:33:34.073Z,100.00
2023-04-11T10:36:06.669Z,100.00
2023-04-11T10:38:51.443Z,100.00
2023-04-11T10:41:26.642Z,100.00
2023-04-11T10:44:21.293Z,100.00
2023-04-11T10:46:52.101Z,100.00
2023-04-11T10:49:40.521Z,100.00
2023-04-11T10:52:21.034Z,100.00
2023-04-11T10:55:01.169Z,100.00
2023-04-11T10:57:31.045Z,100.00
2023-04-11T11:00:02.417Z,100.00
2023-04-11T11:02:39.766Z,100.00
2023-04-11T11:05:22.669Z,100.00
2023-04-11T11:07:56.801Z,100.00
2023-04-11T11:10:47.521Z,100.00
2023-04-11T11:13:18.039Z,100.00
2023-04-11T11:15:52.195Z,100.00
2023-04-11T11:18:21.222Z,100.00
2023-04-11T11:20:49.761Z,100.00
2023-04-11T11:23:19.161Z,100.00
2023-04-11T11:25:55.111Z,100.00
2023-04-11T11:28:24.484Z,100.00
2023-04-11T11:30:58.437Z,100.00
2023-04-11T11:33:28.098Z,100.00
2023-04-11T11:35:58.837Z,100.00
2023-04-11T11:38:31.771Z,100.00
2023-04-11T11:41:01.064Z,100.00
2023-04-11T11:43:29.862Z,100.00
2023-04-11T11:46:21.294Z,100.00
2023-04-11T11:49:00.542Z,100.00
2023-04-11T11:51:29.553Z,100.00
2023-04-11T11:54:10.497Z,100.00
2023-04-11T11:56:39.699Z,100.00
2023-04-11T11:59:10.562Z,100.00
2023-04-11T12:01:43.642Z,100.00
2023-04-11T12:04:13.447Z,100.00
2023-04-11T12:06:42.770Z,100.00
2023-04-11T12:09:12.630Z,100.00
2023-04-11T12:11:42.759Z,100.00
2023-04-11T12:14:12.700Z,100.00
2023-04-11T12:16:42.902Z,100.00
2023-04-11T12:19:15.133Z,100.00
2023-04-11T12:21:44.039Z,100.00
2023-04-11T12:24:15.432Z,100.00
2023-04-11T12:27:05.644Z,100.00
2023-04-11T12:29:35.226Z,100.00
2023-04-11T12:32:05.376Z,100.00
2023-04-11T12:34:34.552Z,100.00
2023-04-11T12:37:06.931Z,100.00
2023-04-11T12:39:36.037Z,100.00
2023-04-11T12:42:10.086Z,100.00
2023-04-11T12:44:41.610Z,100.00
2023-04-11T12:47:12.800Z,100.00
2023-04-11T12:49:41.746Z,98.64
2023-04-11T12:52:10.579Z,98.48
2023-04-11T12:54:42.228Z,97.19
2023-04-11T12:57:12.630Z,96.79
2023-04-11T12:59:41.223Z,96.86
2023-04-11T13:02:12.299Z,97.31
2023-04-11T13:04:41.949Z,98.25
2023-04-11T13:07:10.888Z,98.75
2023-04-11T13:09:39.632Z,98.56
2023-04-11T13:12:09.007Z,97.59
2023-04-11T13:14:38.149Z,93.70
2023-04-11T13:17:07.184Z,95.63
2023-04-11T13:19:37.571Z,93.69
2023-04-11T13:22:06.737Z,94.83
2023-04-11T13:24:38.849Z,95.24
2023-04-11T13:27:07.742Z,93.59
2023-04-11T13:29:36.864Z,94.32
2023-04-11T13:32:05.802Z,92.29
2023-04-11T13:34:34.521Z,91.22
2023-04-11T13:37:04.710Z,89.72
2023-04-11T13:39:33.813Z,89.75
2023-04-11T13:42:02.555Z,86.51
2023-04-11T13:44:34.388Z,87.20
2023-04-11T13:47:03.836Z,85.16
2023-04-11T13:49:33.083Z,84.35
2023-04-11T13:52:01.648Z,81.04
2023-04-11T13:54:32.026Z,85.14
2023-04-11T13:57:01.311Z,82.50
2023-04-11T13:59:29.989Z,81.98
2023-04-11T14:01:58.972Z,81.87
2023-04-11T14:04:28.712Z,84.10
2023-04-11T14:06:57.493Z,83.95
2023-04-11T14:09:26.923Z,82.19
2023-04-11T14:11:58.873Z,84.47
2023-04-11T14:14:31.054Z,85.59
2023-04-11T14:16:59.967Z,88.25
2023-04-11T14:19:28.702Z,92.50
2023-04-11T14:21:58.142Z,98.11
2023-04-11T14:24:29.999Z,100.00
2023-04-11T14:27:00.588Z,100.00
2023-04-11T14:29:30.196Z,100.00
2023-04-11T14:32:00.516Z,100.00
2023-04-11T14:34:30.073Z,100.00
2023-04-11T14:36:58.942Z,100.00
2023-04-11T14:39:27.876Z,100.00
2023-04-11T14:41:56.672Z,100.00
2023-04-11T14:44:28.032Z,100.00
2023-04-11T14:46:57.202Z,100.00
2023-04-11T14:49:25.885Z,100.00
2023-04-11T14:51:54.310Z,100.00
2023-04-11T14:54:30.540Z,100.00
2023-04-11T14:56:59.793Z,100.00
2023-04-11T14:59:32.048Z,100.00
2023-04-11T15:02:01.119Z,100.00
2023-04-11T15:04:29.989Z,100.00
2023-04-11T15:06:59.452Z,100.00
2023-04-11T15:09:29.306Z,97.96
2023-04-11T15:11:58.424Z,95.81
2023-04-11T15:14:29.690Z,94.56
2023-04-11T15:17:00.360Z,92.79
2023-04-11T15:19:29.279Z,91.21
2023-04-11T15:21:59.386Z,91.96
2023-04-11T15:24:28.653Z,91.36
2023-04-11T15:26:57.410Z,90.84
2023-04-11T15:29:26.952Z,90.73
2023-04-11T15:31:55.859Z,92.18
2023-04-11T15:34:26.908Z,94.46
2023-04-11T15:36:59.901Z,98.89
2023-04-11T15:39:28.803Z,99.89
2023-04-11T15:41:57.996Z,100.00
2023-04-11T15:44:26.804Z,100.00
2023-04-11T15:46:55.992Z,100.00
2023-04-11T15:49:26.771Z,100.00
2023-04-11T15:51:58.248Z,100.00
2023-04-11T15:54:26.897Z,100.00
2023-04-11T15:56:57.226Z,100.00
2023-04-11T15:59:26.413Z,100.00
2023-04-11T16:01:55.965Z,100.00
2023-04-11T16:04:27.503Z,100.00
2023-04-11T16:06:57.212Z,100.00
2023-04-11T16:09:26.485Z,100.00
2023-04-11T16:12:01.447Z,100.00
2023-04-11T16:14:30.863Z,100.00
2023-04-11T16:16:59.762Z,100.00
2023-04-11T16:19:30.352Z,100.00
2023-04-11T16:22:01.024Z,100.00
2023-04-11T16:24:35.641Z,100.00
2023-04-11T16:27:04.339Z,100.00
2023-04-11T16:29:33.322Z,100.00
2023-04-11T16:32:02.487Z,100.00
2023-04-11T16:34:32.900Z,100.00
2023-04-11T16:37:02.702Z,100.00
2023-04-11T16:39:31.238Z,100.00
2023-04-11T16:41:59.836Z,100.00
2023-04-11T16:44:29.066Z,100.00
2023-04-11T16:46:57.912Z,100.00
2023-04-11T16:49:26.978Z,100.00
2023-04-11T16:51:57.321Z,100.00
2023-04-11T16:54:26.245Z,100.00
2023-04-11T16:56:55.212Z,100.00
2023-04-11T16:59:24.573Z,100.00
2023-04-11T17:01:53.543Z,100.00
2023-04-11T17:04:22.652Z,100.00
2023-04-11T17:06:52.205Z,100.00
2023-04-11T17:09:22.498Z,100.00
2023-04-11T17:11:51.397Z,100.00
2023-04-11T17:14:20.378Z,100.00
2023-04-11T17:16:51.751Z,100.00
2023-04-11T17:19:20.656Z,100.00
2023-04-11T17:21:49.799Z,100.00
2023-04-11T17:24:18.553Z,100.00
2023-04-11T17:27:13.371Z,100.00
2023-04-11T17:29:44.970Z,100.00
2023-04-11T17:32:13.859Z,100.00
2023-04-11T17:34:42.707Z,100.00
2023-04-11T17:37:11.463Z,100.00
2023-04-11T17:39:40.109Z,100.00
2023-04-11T17:42:14.267Z,100.00
2023-04-11T17:44:42.975Z,100.00
2023-04-11T17:47:15.178Z,100.00
2023-04-11T17:49:46.323Z,100.00
2023-04-11T17:52:20.958Z,100.00
2023-04-11T17:54:50.569Z,100.00
2023-04-11T17:57:20.966Z,100.00
2023-04-11T17:59:51.515Z,100.00
2023-04-11T18:02:20.499Z,100.00
2023-04-11T18:04:50.347Z,100.00
2023-04-11T18:07:27.505Z,100.00
2023-04-11T18:09:56.398Z,100.00
2023-04-11T18:12:29.536Z,100.00
2023-04-11T18:14:58.607Z,100.00
2023-04-11T18:17:29.341Z,100.00
2023-04-11T18:19:58.770Z,100.00
2023-04-11T18:22:27.815Z,100.00
2023-04-11T18:24:56.784Z,100.00
2023-04-11T18:27:27.250Z,100.00
2023-04-11T18:29:56.384Z,100.00
2023-04-11T18:32:31.980Z,100.00
2023-04-11T18:35:07.530Z,100.00
2023-04-11T18:37:37.999Z,100.00
2023-04-11T18:40:12.272Z,100.00
2023-04-11T18:42:43.046Z,100.00
2023-04-11T18:45:13.764Z,100.00
2023-04-11T18:47:43.041Z,100.00
2023-04-11T18:50:14.585Z,100.00
2023-04-11T18:52:50.325Z,100.00
2023-04-11T18:55:23.015Z,100.00
2023-04-11T18:57:58.288Z,100.00
2023-04-11T19:00:30.458Z,100.00
2023-04-11T19:03:00.010Z,100.00
2023-04-11T19:05:29.396Z,100.00
2023-04-11T19:07:59.244Z,100.00
2023-04-11T19:10:28.096Z,100.00
2023-04-11T19:12:58.557Z,100.00
2023-04-11T19:15:27.547Z,100.00
2023-04-11T19:18:03.491Z,100.00
2023-04-11T19:20:32.951Z,100.00
2023-04-11T19:23:01.902Z,100.00
2023-04-11T19:25:31.729Z,100.00
2023-04-11T19:28:04.832Z,100.00
2023-04-11T19:30:36.342Z,100.00
2023-04-11T19:33:06.261Z,100.00
2023-04-11T19:35:36.027Z,100.00
2023-04-11T19:38:10.415Z,100.00
2023-04-11T19:40:45.131Z,100.00
2023-04-11T19:43:16.306Z,100.00
2023-04-11T19:45:49.530Z,100.00
2023-04-11T19:48:18.881Z,100.00
2023-04-11T19:50:48.065Z,100.00
2023-04-11T19:53:17.415Z,100.00
2023-04-11T19:55:47.795Z,100.00
2023-04-11T19:58:18.138Z,100.00
2023-04-11T20:00:50.227Z,100.00
2023-04-11T20:03:19.730Z,100.00
2023-04-11T20:05:48.923Z,100.00
2023-04-11T20:08:17.973Z,100.00
2023-04-11T20:10:47.192Z,100.00
2023-04-11T20:13:21.228Z,100.00
2023-04-11T20:15:50.689Z,100.00
2023-04-11T20:18:20.766Z,100.00
2023-04-11T20:20:52.133Z,100.00
2023-04-11T20:23:21.887Z,100.00
2023-04-11T20:25:51.289Z,100.00
2023-04-11T20:28:21.894Z,100.00
2023-04-11T20:30:50.801Z,100.00
2023-04-11T20:33:19.992Z,100.00
2023-04-11T20:35:51.262Z,100.00
2023-04-11T20:38:21.139Z,100.00
2023-04-11T20:40:58.142Z,100.00
2023-04-11T20:43:37.938Z,100.00
2023-04-11T20:46:08.695Z,100.00
2023-04-11T20:48:38.281Z,100.00
2023-04-11T20:51:10.123Z,100.00
2023-04-11T20:53:38.964Z,100.00
2023-04-11T20:56:08.577Z,100.00
2023-04-11T20:58:40.232Z,100.00
2023-04-11T21:01:12.126Z,100.00
2023-04-11T21:03:44.300Z,100.00
2023-04-11T21:06:13.648Z,100.00
2023-04-11T21:08:42.238Z,100.00
2023-04-11T21:11:11.037Z,100.00
2023-04-11T21:13:42.094Z,100.00
2023-04-11T21:16:11.471Z,100.00
2023-04-11T21:18:40.402Z,100.00
2023-04-11T21:21:10.121Z,100.00
2023-04-11T21:23:38.934Z,100.00
2023-04-11T21:26:12.843Z,100.00
2023-04-11T21:28:42.932Z,100.00
2023-04-11T21:31:13.490Z,100.00
2023-04-11T21:33:42.393Z,100.00
2023-04-11T21:36:15.142Z,100.00
2023-04-11T21:38:44.331Z,100.00
2023-04-11T21:41:13.058Z,100.00
2023-04-11T21:43:43.586Z,100.00
2023-04-11T21:46:12.698Z,100.00
2023-04-11T21:48:43.420Z,100.00
2023-04-11T21:51:13.774Z,100.00
2023-04-11T21:53:42.520Z,100.00
2023-04-11T21:56:12.000Z,100.00
2023-04-11T21:58:40.566Z,100.00
2023-04-11T22:01:13.540Z,100.00
2023-04-11T22:03:44.586Z,100.00
2023-04-11T22:06:16.975Z,100.00
2023-04-11T22:08:50.907Z,100.00
2023-04-11T22:11:22.934Z,100.00
2023-04-11T22:13:52.767Z,100.00
2023-04-11T22:16:30.541Z,100.00
2023-04-11T22:19:00.940Z,100.00
2023-04-11T22:21:32.839Z,100.00
2023-04-11T22:24:02.591Z,100.00
2023-04-11T22:26:34.438Z,100.00
2023-04-11T22:29:05.350Z,100.00
2023-04-11T22:31:39.064Z,100.00
2023-04-11T22:34:09.850Z,100.00
2023-04-11T22:36:38.611Z,100.00
2023-04-11T22:39:07.664Z,100.00
2023-04-11T22:41:39.343Z,100.00
2023-04-11T22:44:08.115Z,100.00
2023-04-11T22:46:39.197Z,100.00
2023-04-11T22:49:09.977Z,100.00
2023-04-11T22:51:41.207Z,100.00
2023-04-11T22:54:10.170Z,100.00
2023-04-11T22:56:39.292Z,100.00
2023-04-11T22:59:09.417Z,100.00
2023-04-11T23:01:39.664Z,100.00
2023-04-11T23:04:08.553Z,100.00
2023-04-11T23:06:37.454Z,100.00
2023-04-11T23:09:07.101Z,100.00
2023-04-11T23:11:38.738Z,100.00
2023-04-11T23:14:07.328Z,100.00
2023-04-11T23:16:36.072Z,100.00
2023-04-11T23:19:06.518Z,100.00
2023-04-11T23:21:34.807Z,100.00
2023-04-11T23:24:03.098Z,100.00
2023-04-11T23:26:31.709Z,100.00
2023-04-11T23:29:02.454Z,100.00
2023-04-11T23:31:31.684Z,100.00
2023-04-11T23:34:02.064Z,100.00
2023-04-11T23:36:33.009Z,100.00
2023-04-11T23:39:02.356Z,100.00
2023-04-11T23:41:31.681Z,100.00
2023-04-11T23:44:00.711Z,100.00
2023-04-11T23:46:29.829Z,100.00
2023-04-11T23:49:00.648Z,100.00
2023-04-11T23:51:29.207Z,100.00
2023-04-11T23:54:00.009Z,100.00
2023-04-11T23:56:28.970Z,100.00
2023-04-11T23:58:57.763Z,100.00
